Time;durP1;ratioP1;P1;durP2;ratioP2;P2;SDS_P1;SDS_P2;PMS_P1;PMS_P2;Temp;Humidity;BMP_temperature;BMP_pressure;BME280_temperature;BME280_humidity;BME280_pressure;Samples;Min_cycle;Max_cycle;Signal;HPM_P1;HPM_P2
2023/11/21 00:00:12;;;;;;;12.03;6.77;;;;;;;;;;690520;28;1191;-69
2023/11/21 00:00:35;;;;;;;12.18;7.45;;;;;;;;;;689867;28;4492;-69
2023/11/21 00:00:56;;;;;;;12.53;7.50;;;;;;;;;;688983;28;2318;-69
2023/11/21 00:01:16;;;;;;;11.67;6.87;;;;;;;;;;690571;28;1321;-70
2023/11/21 00:01:37;;;;;;;10.02;6.50;;;;;;;;;;689730;28;1271;-70
2023/11/21 00:01:58;;;;;;;12.23;6.65;;;;;;;;;;688978;28;1195;-69
2023/11/21 00:02:18;;;;;;;11.90;6.83;;;;;;;;;;690504;28;1148;-69
2023/11/21 00:02:40;;;;;;;11.15;6.43;;;;;;;;;;689402;28;1743;-69
2023/11/21 00:03:00;;;;;;;9.77;6.63;;;;;;;;;;689189;28;1371;-69
2023/11/21 00:03:23;;;;;;;11.63;6.67;;;;;;;;;;690018;28;1207;-69
2023/11/21 00:03:43;;;;;;;11.50;6.80;;;;;;;;;;688761;28;4278;-69
2023/11/21 00:04:04;;;;;;;11.27;6.90;;;;;;;;;;689614;28;1140;-69
2023/11/21 00:04:24;;;;;;;12.27;6.97;;;;;;;;;;691057;28;1160;-69
2023/11/21 00:04:45;;;;;;;10.57;6.90;;;;;;;;;;691509;28;2261;-69
2023/11/21 00:05:09;;;;;;;12.48;7.15;;;;;;;;;;689975;28;1204;-69
2023/11/21 00:05:30;;;;;;;12.35;7.00;;;;;;;;;;689424;28;1244;-69
2023/11/21 00:05:50;;;;;;;12.03;7.00;;;;;;;;;;689055;28;1536;-69
2023/11/21 00:06:11;;;;;;;9.85;6.57;;;;;;;;;;686662;28;1125;-69
2023/11/21 00:06:32;;;;;;;10.38;6.53;;;;;;;;;;685121;28;1252;-70
2023/11/21 00:06:54;;;;;;;10.65;6.63;;;;;;;;;;682982;28;4288;-69
2023/11/21 00:07:15;;;;;;;11.48;6.97;;;;;;;;;;682865;28;1185;-69
2023/11/21 00:07:37;;;;;;;11.20;7.35;;;;;;;;;;680818;29;1339;-69
2023/11/21 00:07:59;;;;;;;9.48;7.15;;;;;;;;;;682674;28;1262;-69
2023/11/21 00:08:20;;;;;;;10.63;6.60;;;;;;;;;;682291;28;1196;-70
2023/11/21 00:08:40;;;;;;;10.98;6.65;;;;;;;;;;684446;28;1578;-70
2023/11/21 00:09:01;;;;;;;12.03;6.97;;;;;;;;;;685267;28;1197;-69
2023/11/21 00:09:22;;;;;;;13.02;6.93;;;;;;;;;;686519;28;1180;-70
2023/11/21 00:09:43;;;;;;;12.80;7.20;;;;;;;;;;682855;28;4244;-69
2023/11/21 00:10:07;;;;;;;11.40;6.97;;;;;;;;;;686727;28;1285;-70
2023/11/21 00:10:28;;;;;;;9.80;6.72;;;;;;;;;;689552;28;1160;-69
2023/11/21 00:10:48;;;;;;;9.47;7.00;;;;;;;;;;689490;28;1791;-70
2023/11/21 00:11:08;;;;;;;9.73;6.67;;;;;;;;;;690465;28;1037;-69
2023/11/21 00:11:29;;;;;;;10.35;6.75;;;;;;;;;;686894;28;1223;-69
2023/11/21 00:11:49;;;;;;;11.20;6.63;;;;;;;;;;687086;28;1721;-70
2023/11/21 00:12:09;;;;;;;11.80;6.83;;;;;;;;;;689596;28;1163;-69
2023/11/21 00:12:30;;;;;;;11.98;6.72;;;;;;;;;;689085;28;1908;-69
2023/11/21 00:12:51;;;;;;;12.65;6.75;;;;;;;;;;685828;28;4265;-70
2023/11/21 00:13:12;;;;;;;12.33;7.13;;;;;;;;;;687832;28;1343;-69
2023/11/21 00:13:32;;;;;;;12.38;7.45;;;;;;;;;;687556;28;1199;-69
2023/11/21 00:13:53;;;;;;;12.03;7.37;;;;;;;;;;687714;28;2605;-69
2023/11/21 00:14:15;;;;;;;11.63;7.40;;;;;;;;;;687373;28;1228;-70
2023/11/21 00:14:36;;;;;;;11.00;6.90;;;;;;;;;;688842;28;1116;-69
2023/11/21 00:14:56;;;;;;;10.35;6.63;;;;;;;;;;688716;28;1815;-69
2023/11/21 00:15:17;;;;;;;11.77;6.70;;;;;;;;;;687609;28;1058;-70
2023/11/21 00:15:37;;;;;;;13.88;7.05;;;;;;;;;;686610;28;4453;-69
2023/11/21 00:15:58;;;;;;;11.40;6.73;;;;;;;;;;684502;28;2296;-69
2023/11/21 00:16:18;;;;;;;11.52;6.88;;;;;;;;;;687567;28;1153;-69
2023/11/21 00:16:39;;;;;;;11.40;7.20;;;;;;;;;;686119;28;1863;-69
2023/11/21 00:17:00;;;;;;;11.95;7.30;;;;;;;;;;689988;28;1102;-69
2023/11/21 00:17:20;;;;;;;11.13;7.15;;;;;;;;;;690283;28;786;-69
2023/11/21 00:17:40;;;;;;;12.30;7.70;;;;;;;;;;688874;28;2283;-69
2023/11/21 00:18:01;;;;;;;13.10;7.93;;;;;;;;;;690227;28;962;-69
2023/11/21 00:18:21;;;;;;;12.63;7.40;;;;;;;;;;689880;28;1105;-69
2023/11/21 00:18:42;;;;;;;11.13;7.43;;;;;;;;;;688178;28;4285;-70
2023/11/21 00:19:02;;;;;;;12.60;7.57;;;;;;;;;;690142;28;944;-69
2023/11/21 00:19:23;;;;;;;13.40;7.70;;;;;;;;;;690391;28;845;-68
2023/11/21 00:19:43;;;;;;;12.10;7.47;;;;;;;;;;689182;28;1644;-69
2023/11/21 00:20:06;;;;;;;12.02;7.40;;;;;;;;;;686321;28;5696;-70
2023/11/21 00:20:26;;;;;;;11.88;7.68;;;;;;;;;;686011;28;959;-69
2023/11/21 00:20:46;;;;;;;13.23;7.60;;;;;;;;;;684758;28;1710;-70
2023/11/21 00:21:07;;;;;;;14.17;7.50;;;;;;;;;;686114;28;1264;-69
2023/11/21 00:21:27;;;;;;;13.53;7.47;;;;;;;;;;685361;28;948;-69
2023/11/21 00:21:47;;;;;;;11.40;7.05;;;;;;;;;;685512;28;4270;-69
2023/11/21 00:22:08;;;;;;;11.27;6.83;;;;;;;;;;690120;28;876;-70
2023/11/21 00:22:29;;;;;;;10.93;7.00;;;;;;;;;;686305;28;1237;-69
2023/11/21 00:22:49;;;;;;;10.70;6.72;;;;;;;;;;686953;28;1704;-68
2023/11/21 00:23:09;;;;;;;11.63;6.90;;;;;;;;;;687241;28;916;-70
2023/11/21 00:23:30;;;;;;;11.03;7.13;;;;;;;;;;687269;28;1170;-69
2023/11/21 00:23:50;;;;;;;11.20;7.40;;;;;;;;;;685065;28;1818;-70
2023/11/21 00:24:13;;;;;;;11.50;7.30;;;;;;;;;;686166;28;901;-69
2023/11/21 00:24:34;;;;;;;10.48;6.95;;;;;;;;;;690210;28;935;-69
2023/11/21 00:24:54;;;;;;;11.47;7.23;;;;;;;;;;688392;28;4250;-69
2023/11/21 00:25:16;;;;;;;13.90;7.97;;;;;;;;;;690062;28;978;-69
2023/11/21 00:25:37;;;;;;;12.98;7.55;;;;;;;;;;690396;28;979;-69
2023/11/21 00:25:57;;;;;;;13.67;7.30;;;;;;;;;;691679;28;2165;-69
2023/11/21 00:26:18;;;;;;;12.63;7.30;;;;;;;;;;692808;28;939;-69
2023/11/21 00:26:44;;;;;;;12.10;7.20;;;;;;;;;;688515;28;2238;-70
2023/11/21 00:27:05;;;;;;;11.45;7.28;;;;;;;;;;687009;28;1537;-70
2023/11/21 00:27:26;;;;;;;11.88;7.45;;;;;;;;;;686004;28;884;-69
2023/11/21 00:27:46;;;;;;;12.37;7.53;;;;;;;;;;685564;28;4296;-69
2023/11/21 00:28:07;;;;;;;12.32;7.50;;;;;;;;;;684457;28;1290;-69
2023/11/21 00:28:27;;;;;;;12.10;7.37;;;;;;;;;;684682;28;1424;-69
2023/11/21 00:28:47;;;;;;;11.93;7.45;;;;;;;;;;682668;28;1682;-70
2023/11/21 00:29:08;;;;;;;11.23;7.60;;;;;;;;;;680469;28;1252;-69
2023/11/21 00:29:28;;;;;;;11.02;7.53;;;;;;;;;;677471;29;1381;-70
2023/11/21 00:29:49;;;;;;;13.83;7.60;;;;;;;;;;677238;29;2524;-69
2023/11/21 00:30:09;;;;;;;14.23;7.68;;;;;;;;;;677652;29;802;-69
2023/11/21 00:30:30;;;;;;;14.50;7.90;;;;;;;;;;681863;29;1283;-69
2023/11/21 00:30:51;;;;;;;13.60;7.78;;;;;;;;;;680625;28;4285;-69
2023/11/21 00:31:11;;;;;;;13.33;7.60;;;;;;;;;;685545;28;1409;-69
2023/11/21 00:31:31;;;;;;;12.97;7.43;;;;;;;;;;684995;28;758;-69
2023/11/21 00:31:51;;;;;;;12.68;7.30;;;;;;;;;;685244;28;1760;-69
2023/11/21 00:32:12;;;;;;;14.87;8.03;;;;;;;;;;684673;28;908;-70
2023/11/21 00:32:32;;;;;;;13.27;7.73;;;;;;;;;;687118;28;1910;-69
2023/11/21 00:32:52;;;;;;;13.00;7.87;;;;;;;;;;686588;28;1843;-70
2023/11/21 00:33:13;;;;;;;12.93;7.60;;;;;;;;;;684605;28;1350;-69
2023/11/21 00:33:33;;;;;;;12.25;7.20;;;;;;;;;;684132;28;890;-69
2023/11/21 00:33:55;;;;;;;12.13;7.30;;;;;;;;;;680544;28;4227;-70
2023/11/21 00:34:15;;;;;;;11.95;7.25;;;;;;;;;;682849;28;968;-69
2023/11/21 00:34:35;;;;;;;13.37;7.60;;;;;;;;;;683812;28;793;-69
2023/11/21 00:34:56;;;;;;;13.17;7.67;;;;;;;;;;681287;28;2616;-69
2023/11/21 00:35:16;;;;;;;12.60;7.82;;;;;;;;;;684206;28;1461;-69
2023/11/21 00:35:36;;;;;;;12.03;7.83;;;;;;;;;;681713;28;1202;-70
2023/11/21 00:35:57;;;;;;;11.87;7.57;;;;;;;;;;681003;28;2229;-69
2023/11/21 00:36:17;;;;;;;12.98;7.32;;;;;;;;;;682333;28;1351;-69
2023/11/21 00:36:38;;;;;;;12.87;7.47;;;;;;;;;;680878;29;4344;-70
2023/11/21 00:36:58;;;;;;;12.15;7.75;;;;;;;;;;679238;28;1575;-69
2023/11/21 00:37:19;;;;;;;11.57;7.38;;;;;;;;;;686178;28;1251;-70
2023/11/21 00:37:39;;;;;;;12.50;7.70;;;;;;;;;;684294;28;1267;-70
2023/11/21 00:38:00;;;;;;;13.15;7.88;;;;;;;;;;680753;28;2672;-69
2023/11/21 00:38:20;;;;;;;12.70;8.13;;;;;;;;;;681994;29;1144;-69
2023/11/21 00:38:40;;;;;;;13.43;8.33;;;;;;;;;;683745;28;1187;-71
2023/11/21 00:39:02;;;;;;;13.15;7.80;;;;;;;;;;681794;28;5519;-70
2023/11/21 00:39:23;;;;;;;12.60;7.55;;;;;;;;;;681911;28;904;-70
2023/11/21 00:39:43;;;;;;;12.50;7.80;;;;;;;;;;681514;28;4438;-70
2023/11/21 00:40:07;;;;;;;12.67;7.70;;;;;;;;;;687357;28;900;-69
2023/11/21 00:40:28;;;;;;;11.60;7.50;;;;;;;;;;685395;28;2245;-70
2023/11/21 00:40:49;;;;;;;11.23;7.37;;;;;;;;;;684734;28;1473;-70
2023/11/21 00:41:09;;;;;;;12.47;7.60;;;;;;;;;;684156;28;885;-69
2023/11/21 00:41:29;;;;;;;13.05;8.07;;;;;;;;;;684639;28;1639;-69
2023/11/21 00:41:49;;;;;;;13.23;7.87;;;;;;;;;;683333;28;1357;-69
2023/11/21 00:42:10;;;;;;;13.40;7.50;;;;;;;;;;684674;28;967;-69
2023/11/21 00:42:33;;;;;;;13.90;7.72;;;;;;;;;;686694;28;1243;-69
2023/11/21 00:42:53;;;;;;;11.88;7.68;;;;;;;;;;685003;28;4272;-71
2023/11/21 00:43:13;;;;;;;11.43;7.47;;;;;;;;;;689313;28;790;-69
2023/11/21 00:43:35;;;;;;;12.33;7.40;;;;;;;;;;689861;28;2436;-70
2023/11/21 00:43:56;;;;;;;13.82;7.45;;;;;;;;;;689209;28;1744;-70
2023/11/21 00:44:16;;;;;;;11.73;7.43;;;;;;;;;;687967;28;1108;-69
2023/11/21 00:44:39;;;;;;;12.02;7.60;;;;;;;;;;689003;28;833;-70
2023/11/21 00:45:00;;;;;;;12.57;7.57;;;;;;;;;;688676;28;2958;-70
2023/11/21 00:45:20;;;;;;;12.17;7.83;;;;;;;;;;690661;28;809;-69
2023/11/21 00:45:40;;;;;;;13.00;7.53;;;;;;;;;;686682;28;4525;-70
2023/11/21 00:46:07;;;;;;;12.18;7.63;;;;;;;;;;687099;28;1157;-70
2023/11/21 00:46:28;;;;;;;11.88;7.50;;;;;;;;;;689131;28;889;-71
2023/11/21 00:46:49;;;;;;;12.98;7.75;;;;;;;;;;684831;28;1866;-70
2023/11/21 00:47:09;;;;;;;11.47;7.90;;;;;;;;;;687241;28;873;-70
2023/11/21 00:47:29;;;;;;;11.77;7.85;;;;;;;;;;685272;28;1154;-70
2023/11/21 00:47:49;;;;;;;14.80;8.40;;;;;;;;;;684692;28;1806;-69
2023/11/21 00:48:10;;;;;;;17.70;8.63;;;;;;;;;;684844;28;829;-70
2023/11/21 00:48:30;;;;;;;15.20;8.18;;;;;;;;;;684493;28;1393;-69
2023/11/21 00:48:50;;;;;;;12.93;7.77;;;;;;;;;;683037;28;4244;-70
2023/11/21 00:49:11;;;;;;;13.40;7.77;;;;;;;;;;681828;28;1285;-70
2023/11/21 00:49:32;;;;;;;12.20;7.50;;;;;;;;;;682020;29;995;-70
2023/11/21 00:49:52;;;;;;;12.63;8.07;;;;;;;;;;680809;28;1977;-70
2023/11/21 00:50:13;;;;;;;14.13;8.45;;;;;;;;;;684561;28;1148;-69
2023/11/21 00:50:33;;;;;;;14.03;7.90;;;;;;;;;;682140;28;1173;-69
2023/11/21 00:50:56;;;;;;;14.40;7.43;;;;;;;;;;683744;28;1014;-70
2023/11/21 00:51:16;;;;;;;13.55;7.97;;;;;;;;;;684810;28;822;-69
2023/11/21 00:51:37;;;;;;;14.05;7.88;;;;;;;;;;684767;28;4482;-70
2023/11/21 00:51:58;;;;;;;15.05;8.07;;;;;;;;;;685610;28;1846;-69
2023/11/21 00:52:20;;;;;;;13.75;8.02;;;;;;;;;;688722;28;1537;-70
2023/11/21 00:52:40;;;;;;;14.33;8.23;;;;;;;;;;687054;28;1988;-69
2023/11/21 00:53:01;;;;;;;14.00;7.82;;;;;;;;;;687329;28;1458;-70
2023/11/21 00:53:22;;;;;;;14.20;8.50;;;;;;;;;;687346;28;935;-70
2023/11/21 00:53:42;;;;;;;16.00;8.57;;;;;;;;;;686166;28;1149;-69
2023/11/21 00:54:02;;;;;;;14.32;7.88;;;;;;;;;;688256;28;971;-71
2023/11/21 00:54:23;;;;;;;13.73;7.93;;;;;;;;;;685055;28;1205;-70
2023/11/21 00:54:43;;;;;;;13.60;7.63;;;;;;;;;;683334;28;4441;-70
2023/11/21 00:55:07;;;;;;;14.57;7.47;;;;;;;;;;683633;28;1180;-69
2023/11/21 00:55:29;;;;;;;12.38;7.53;;;;;;;;;;682745;28;960;-69
2023/11/21 00:55:52;;;;;;;13.68;8.05;;;;;;;;;;681773;28;1712;-70
2023/11/21 00:56:13;;;;;;;12.77;7.82;;;;;;;;;;680567;28;997;-69
2023/11/21 00:56:33;;;;;;;13.60;8.27;;;;;;;;;;683493;28;975;-70
2023/11/21 00:56:54;;;;;;;12.68;7.85;;;;;;;;;;685016;28;1265;-69
2023/11/21 00:57:14;;;;;;;12.70;7.30;;;;;;;;;;684544;28;1330;-70
2023/11/21 00:57:35;;;;;;;12.93;7.57;;;;;;;;;;682267;28;841;-70
2023/11/21 00:57:55;;;;;;;13.07;7.32;;;;;;;;;;680365;28;4791;-69
2023/11/21 00:58:15;;;;;;;13.32;7.68;;;;;;;;;;681562;29;1198;-69
2023/11/21 00:58:36;;;;;;;13.07;8.00;;;;;;;;;;682224;28;919;-69
2023/11/21 00:58:56;;;;;;;12.83;8.10;;;;;;;;;;683351;28;2504;-69
2023/11/21 00:59:16;;;;;;;13.33;7.90;;;;;;;;;;684338;28;1251;-70
2023/11/21 00:59:36;;;;;;;13.17;7.60;;;;;;;;;;683948;28;1149;-70
2023/11/21 00:59:57;;;;;;;12.60;7.70;;;;;;;;;;682745;28;1319;-70
2023/11/21 01:00:17;;;;;;;12.00;8.07;;;;;;;;;;682314;28;1343;-69
2023/11/21 01:00:39;;;;;;;12.32;7.78;;;;;;;;;;682453;28;4519;-70
2023/11/21 01:00:59;;;;;;;12.77;8.07;;;;;;;;;;685036;28;2575;-69
2023/11/21 01:01:20;;;;;;;12.33;7.50;;;;;;;;;;685697;28;1487;-70
2023/11/21 01:01:40;;;;;;;14.23;8.00;;;;;;;;;;687314;28;967;-69
2023/11/21 01:02:01;;;;;;;13.33;8.07;;;;;;;;;;685916;28;1460;-70
2023/11/21 01:02:22;;;;;;;14.00;8.13;;;;;;;;;;687414;28;806;-69
2023/11/21 01:02:43;;;;;;;13.77;8.52;;;;;;;;;;687241;28;901;-70
2023/11/21 01:03:03;;;;;;;15.02;8.35;;;;;;;;;;686602;28;1012;-70
2023/11/21 01:03:24;;;;;;;13.50;8.18;;;;;;;;;;687711;28;872;-70
2023/11/21 01:03:48;;;;;;;13.93;8.10;;;;;;;;;;687219;28;4592;-70
2023/11/21 01:04:08;;;;;;;15.52;7.70;;;;;;;;;;687823;28;928;-70
2023/11/21 01:04:29;;;;;;;13.43;7.78;;;;;;;;;;688689;28;932;-69
2023/11/21 01:04:49;;;;;;;12.97;8.03;;;;;;;;;;688461;28;1704;-69
2023/11/21 01:05:10;;;;;;;12.67;8.27;;;;;;;;;;686559;28;1320;-70
2023/11/21 01:05:30;;;;;;;13.90;8.38;;;;;;;;;;686181;28;854;-70
2023/11/21 01:05:50;;;;;;;13.37;8.13;;;;;;;;;;685385;28;1613;-69
2023/11/21 01:06:11;;;;;;;13.93;8.10;;;;;;;;;;686180;28;1628;-70
2023/11/21 01:06:31;;;;;;;13.33;8.03;;;;;;;;;;686318;28;746;-70
2023/11/21 01:06:51;;;;;;;12.32;7.72;;;;;;;;;;685576;28;4313;-70
2023/11/21 01:07:13;;;;;;;13.23;7.83;;;;;;;;;;685626;28;801;-69
2023/11/21 01:07:33;;;;;;;12.45;7.57;;;;;;;;;;685983;28;1226;-71
2023/11/21 01:07:53;;;;;;;13.43;7.63;;;;;;;;;;688694;28;2025;-69
2023/11/21 01:08:14;;;;;;;11.73;7.43;;;;;;;;;;689553;28;1121;-69
2023/11/21 01:08:34;;;;;;;14.23;7.80;;;;;;;;;;686989;28;1137;-70
2023/11/21 01:08:55;;;;;;;13.45;8.15;;;;;;;;;;683490;28;1524;-70
2023/11/21 01:09:18;;;;;;;12.20;8.00;;;;;;;;;;684181;28;1142;-70
2023/11/21 01:09:39;;;;;;;12.40;7.80;;;;;;;;;;684137;28;4439;-69
2023/11/21 01:10:00;;;;;;;13.30;7.57;;;;;;;;;;683242;28;1521;-70
2023/11/21 01:10:21;;;;;;;14.50;7.90;;;;;;;;;;683451;28;1240;-69
2023/11/21 01:10:41;;;;;;;14.33;8.00;;;;;;;;;;685427;28;877;-70
2023/11/21 01:11:02;;;;;;;13.43;7.43;;;;;;;;;;685708;28;1459;-69
2023/11/21 01:11:22;;;;;;;11.82;7.35;;;;;;;;;;688278;28;943;-70
2023/11/21 01:11:42;;;;;;;12.63;7.83;;;;;;;;;;690088;28;908;-70
2023/11/21 01:12:03;;;;;;;13.52;7.97;;;;;;;;;;689444;28;1026;-70
2023/11/21 01:12:24;;;;;;;13.00;7.53;;;;;;;;;;688890;28;895;-70
2023/11/21 01:12:45;;;;;;;13.45;7.57;;;;;;;;;;687392;28;4409;-70
2023/11/21 01:13:05;;;;;;;14.55;7.88;;;;;;;;;;687415;28;1100;-70
2023/11/21 01:13:29;;;;;;;12.70;7.47;;;;;;;;;;687154;28;948;-70
2023/11/21 01:13:49;;;;;;;13.00;7.43;;;;;;;;;;683737;28;1829;-70
2023/11/21 01:14:10;;;;;;;13.33;7.43;;;;;;;;;;683759;28;893;-70
2023/11/21 01:14:30;;;;;;;12.02;7.68;;;;;;;;;;684486;28;1248;-69
2023/11/21 01:14:51;;;;;;;11.82;7.68;;;;;;;;;;680978;28;2301;-70
2023/11/21 01:15:12;;;;;;;11.80;7.68;;;;;;;;;;684891;28;802;-69
2023/11/21 01:15:35;;;;;;;12.97;7.80;;;;;;;;;;679581;29;1272;-69
2023/11/21 01:15:55;;;;;;;12.05;7.72;;;;;;;;;;680190;28;4708;-70
2023/11/21 01:16:16;;;;;;;13.27;7.88;;;;;;;;;;680808;28;4376;-70
2023/11/21 01:16:36;;;;;;;13.57;7.47;;;;;;;;;;682043;28;1471;-70
2023/11/21 01:16:57;;;;;;;14.57;7.50;;;;;;;;;;683208;28;1450;-69
2023/11/21 01:17:19;;;;;;;14.30;7.63;;;;;;;;;;686392;28;782;-70
2023/11/21 01:17:40;;;;;;;13.20;7.23;;;;;;;;;;689905;28;896;-70
2023/11/21 01:18:00;;;;;;;13.32;7.82;;;;;;;;;;688469;28;1495;-70
2023/11/21 01:18:21;;;;;;;11.07;7.53;;;;;;;;;;689486;28;785;-72
2023/11/21 01:18:41;;;;;;;13.63;8.40;;;;;;;;;;689303;28;4263;-70
2023/11/21 01:19:02;;;;;;;14.20;8.07;;;;;;;;;;687606;28;1239;-70
2023/11/21 01:19:23;;;;;;;12.68;8.30;;;;;;;;;;690137;28;1418;-70
2023/11/21 01:19:44;;;;;;;12.17;8.10;;;;;;;;;;688459;28;915;-70
2023/11/21 01:20:12;;;;;;;11.88;7.50;;;;;;;;;;690260;28;936;-70
2023/11/21 01:20:32;;;;;;;11.55;7.22;;;;;;;;;;690234;28;782;-70
2023/11/21 01:20:55;;;;;;;11.50;7.40;;;;;;;;;;686930;28;1185;-70
2023/11/21 01:21:15;;;;;;;14.15;7.53;;;;;;;;;;689830;28;1394;-69
2023/11/21 01:21:35;;;;;;;13.27;8.00;;;;;;;;;;689883;28;4287;-70
2023/11/21 01:21:57;;;;;;;13.63;7.83;;;;;;;;;;688600;28;1522;-70
2023/11/21 01:22:22;;;;;;;12.27;7.68;;;;;;;;;;689857;28;817;-70
2023/11/21 01:22:42;;;;;;;12.10;8.25;;;;;;;;;;690434;28;1396;-70
2023/11/21 01:23:03;;;;;;;13.30;7.95;;;;;;;;;;687316;28;1671;-69
2023/11/21 01:23:23;;;;;;;13.80;7.90;;;;;;;;;;687625;28;1182;-69
2023/11/21 01:23:43;;;;;;;14.10;7.77;;;;;;;;;;686348;28;1037;-70
2023/11/21 01:24:07;;;;;;;12.65;7.97;;;;;;;;;;689894;28;904;-70
2023/11/21 01:24:27;;;;;;;12.18;7.65;;;;;;;;;;690028;28;840;-69
2023/11/21 01:24:47;;;;;;;14.10;8.20;;;;;;;;;;687377;28;4481;-70
2023/11/21 01:25:07;;;;;;;13.50;7.90;;;;;;;;;;689547;28;825;-70
2023/11/21 01:25:28;;;;;;;12.63;7.60;;;;;;;;;;687174;28;1288;-70
2023/11/21 01:25:48;;;;;;;12.90;8.00;;;;;;;;;;686565;28;1075;-70
2023/11/21 01:26:09;;;;;;;12.37;7.93;;;;;;;;;;687192;28;912;-70
2023/11/21 01:26:30;;;;;;;12.50;7.45;;;;;;;;;;684886;28;1483;-69
2023/11/21 01:26:50;;;;;;;11.73;7.30;;;;;;;;;;685651;28;884;-70
2023/11/21 01:27:11;;;;;;;11.57;7.22;;;;;;;;;;686745;28;789;-70
2023/11/21 01:27:31;;;;;;;10.80;7.20;;;;;;;;;;686905;28;1190;-70
2023/11/21 01:27:52;;;;;;;12.05;7.32;;;;;;;;;;685555;28;4275;-70
2023/11/21 01:28:12;;;;;;;12.87;7.33;;;;;;;;;;686978;28;856;-69
2023/11/21 01:28:32;;;;;;;13.40;7.50;;;;;;;;;;690470;28;841;-70
2023/11/21 01:28:53;;;;;;;11.45;7.43;;;;;;;;;;689017;28;1342;-70
2023/11/21 01:29:13;;;;;;;12.80;7.73;;;;;;;;;;689603;28;1141;-70
2023/11/21 01:29:34;;;;;;;11.73;7.50;;;;;;;;;;688772;28;1111;-70
2023/11/21 01:29:54;;;;;;;12.38;7.60;;;;;;;;;;688926;28;1270;-70
2023/11/21 01:30:16;;;;;;;12.77;7.60;;;;;;;;;;689712;28;1197;-69
2023/11/21 01:30:37;;;;;;;11.60;7.40;;;;;;;;;;689046;28;4289;-70
2023/11/21 01:30:57;;;;;;;12.13;7.38;;;;;;;;;;687660;28;1612;-70
2023/11/21 01:31:19;;;;;;;11.17;7.50;;;;;;;;;;689772;28;785;-70
2023/11/21 01:31:41;;;;;;;11.25;7.30;;;;;;;;;;689074;28;876;-70
2023/11/21 01:32:02;;;;;;;11.45;7.20;;;;;;;;;;686009;28;1048;-70
2023/11/21 01:32:23;;;;;;;13.35;7.50;;;;;;;;;;684483;28;1515;-70
2023/11/21 01:32:43;;;;;;;12.23;7.40;;;;;;;;;;686876;28;1961;-69
2023/11/21 01:33:04;;;;;;;11.03;7.40;;;;;;;;;;686464;28;1233;-69
2023/11/21 01:33:25;;;;;;;12.13;7.70;;;;;;;;;;687344;28;896;-70
2023/11/21 01:33:46;;;;;;;12.40;7.35;;;;;;;;;;684681;28;4404;-70
2023/11/21 01:34:06;;;;;;;11.57;7.30;;;;;;;;;;684614;28;1300;-70
2023/11/21 01:34:27;;;;;;;11.57;7.20;;;;;;;;;;683076;28;1396;-70
2023/11/21 01:34:48;;;;;;;11.50;7.03;;;;;;;;;;683826;28;952;-70
2023/11/21 01:35:09;;;;;;;11.00;7.10;;;;;;;;;;683775;28;1213;-70
2023/11/21 01:35:30;;;;;;;10.20;6.88;;;;;;;;;;684499;28;1334;-70
2023/11/21 01:35:50;;;;;;;10.33;7.03;;;;;;;;;;681992;28;1235;-70
2023/11/21 01:36:11;;;;;;;11.82;7.70;;;;;;;;;;683270;28;955;-70
2023/11/21 01:36:32;;;;;;;11.45;7.28;;;;;;;;;;681959;29;821;-70
2023/11/21 01:36:52;;;;;;;11.30;7.00;;;;;;;;;;683724;28;4395;-70
2023/11/21 01:37:13;;;;;;;11.77;7.23;;;;;;;;;;687555;28;845;-70
2023/11/21 01:37:33;;;;;;;10.95;7.47;;;;;;;;;;686855;28;1591;-70
2023/11/21 01:37:54;;;;;;;12.13;7.17;;;;;;;;;;685712;28;932;-70
2023/11/21 01:38:15;;;;;;;12.53;7.10;;;;;;;;;;687179;28;908;-69
2023/11/21 01:38:35;;;;;;;11.70;6.78;;;;;;;;;;687251;28;1371;-71
2023/11/21 01:38:59;;;;;;;12.20;6.83;;;;;;;;;;684845;28;5345;-70
2023/11/21 01:39:23;;;;;;;11.25;7.22;;;;;;;;;;686035;28;1209;-70
2023/11/21 01:39:44;;;;;;;12.43;6.97;;;;;;;;;;681813;28;4660;-70
2023/11/21 01:40:10;;;;;;;10.88;7.00;;;;;;;;;;681781;28;1071;-70
2023/11/21 01:40:30;;;;;;;12.27;7.57;;;;;;;;;;685155;28;972;-71
2023/11/21 01:40:51;;;;;;;12.13;7.35;;;;;;;;;;685198;28;1065;-70
2023/11/21 01:41:13;;;;;;;12.40;7.30;;;;;;;;;;686710;28;1629;-70
2023/11/21 01:41:35;;;;;;;12.57;7.45;;;;;;;;;;685314;28;1364;-70
2023/11/21 01:41:58;;;;;;;13.63;7.95;;;;;;;;;;683286;28;1421;-72
2023/11/21 01:42:18;;;;;;;13.63;7.22;;;;;;;;;;684256;28;963;-70
2023/11/21 01:42:40;;;;;;;12.38;7.38;;;;;;;;;;684645;28;4453;-70
2023/11/21 01:43:03;;;;;;;12.10;7.53;;;;;;;;;;682022;28;1277;-70
2023/11/21 01:43:23;;;;;;;11.85;7.47;;;;;;;;;;684106;28;1232;-69
2023/11/21 01:43:43;;;;;;;11.10;7.23;;;;;;;;;;682690;29;1200;-69
2023/11/21 01:44:07;;;;;;;11.10;7.50;;;;;;;;;;683728;28;1239;-70
2023/11/21 01:44:27;;;;;;;14.07;7.95;;;;;;;;;;684814;28;805;-70
2023/11/21 01:44:48;;;;;;;10.90;7.13;;;;;;;;;;681592;28;1128;-70
2023/11/21 01:45:09;;;;;;;13.27;6.97;;;;;;;;;;682393;29;901;-70
2023/11/21 01:45:33;;;;;;;11.70;6.88;;;;;;;;;;685414;28;903;-70
2023/11/21 01:45:56;;;;;;;10.98;6.90;;;;;;;;;;680637;28;4463;-71
2023/11/21 01:46:17;;;;;;;11.34;7.04;;;;;;;;;;683328;28;735;-71
2023/11/21 01:46:38;;;;;;;11.57;7.27;;;;;;;;;;686371;28;825;-70
2023/11/21 01:46:58;;;;;;;11.10;6.82;;;;;;;;;;686360;28;1016;-70
2023/11/21 01:47:18;;;;;;;12.63;7.28;;;;;;;;;;687160;28;916;-70
2023/11/21 01:47:41;;;;;;;13.20;7.80;;;;;;;;;;687991;28;880;-70
2023/11/21 01:48:02;;;;;;;12.70;7.97;;;;;;;;;;686794;28;1252;-70
2023/11/21 01:48:23;;;;;;;12.68;7.40;;;;;;;;;;684426;28;1578;-70
2023/11/21 01:48:45;;;;;;;10.98;7.07;;;;;;;;;;684844;28;4292;-70
2023/11/21 01:49:05;;;;;;;11.75;7.57;;;;;;;;;;687507;28;1326;-70
2023/11/21 01:49:25;;;;;;;12.50;7.90;;;;;;;;;;689141;28;935;-70
2023/11/21 01:49:46;;;;;;;11.20;7.37;;;;;;;;;;688699;28;1247;-70
2023/11/21 01:50:07;;;;;;;13.07;7.53;;;;;;;;;;687642;28;920;-69
2023/11/21 01:50:28;;;;;;;13.00;7.50;;;;;;;;;;687394;28;999;-70
2023/11/21 01:50:48;;;;;;;12.88;7.35;;;;;;;;;;686693;28;1161;-70
2023/11/21 01:51:09;;;;;;;12.60;7.30;;;;;;;;;;685370;28;1258;-70
2023/11/21 01:51:29;;;;;;;11.45;7.32;;;;;;;;;;684625;28;1291;-70
2023/11/21 01:51:50;;;;;;;11.87;7.70;;;;;;;;;;685967;28;4468;-69
2023/11/21 01:52:11;;;;;;;11.57;7.55;;;;;;;;;;687854;28;916;-70
2023/11/21 01:52:31;;;;;;;11.70;7.63;;;;;;;;;;682441;28;1174;-69
2023/11/21 01:52:51;;;;;;;13.33;7.50;;;;;;;;;;681516;28;2045;-70
2023/11/21 01:53:13;;;;;;;12.55;7.65;;;;;;;;;;687343;28;2172;-70
2023/11/21 01:53:33;;;;;;;11.57;7.50;;;;;;;;;;686534;28;1156;-69
2023/11/21 01:53:54;;;;;;;11.75;7.63;;;;;;;;;;685238;28;1331;-70
2023/11/21 01:54:14;;;;;;;13.07;7.53;;;;;;;;;;686306;28;801;-69
2023/11/21 01:54:36;;;;;;;13.05;7.07;;;;;;;;;;685049;28;4285;-70
2023/11/21 01:54:58;;;;;;;13.88;7.05;;;;;;;;;;684930;28;1030;-70
2023/11/21 01:55:18;;;;;;;13.25;7.10;;;;;;;;;;685444;28;892;-69
2023/11/21 01:55:39;;;;;;;12.27;7.10;;;;;;;;;;688051;28;896;-70
2023/11/21 01:56:00;;;;;;;11.98;7.50;;;;;;;;;;686926;28;1370;-69
2023/11/21 01:56:21;;;;;;;13.38;7.13;;;;;;;;;;685722;28;1465;-69
2023/11/21 01:56:41;;;;;;;12.77;7.83;;;;;;;;;;684670;28;1247;-71
2023/11/21 01:57:02;;;;;;;11.50;7.60;;;;;;;;;;681292;28;1140;-69
2023/11/21 01:57:23;;;;;;;11.70;7.65;;;;;;;;;;682343;28;1434;-70
2023/11/21 01:57:43;;;;;;;12.85;7.55;;;;;;;;;;684372;28;4279;-70
2023/11/21 01:58:03;;;;;;;12.87;7.70;;;;;;;;;;686900;28;1509;-69
2023/11/21 01:58:24;;;;;;;13.43;7.80;;;;;;;;;;684483;28;1359;-69
2023/11/21 01:58:46;;;;;;;13.70;7.75;;;;;;;;;;684594;28;809;-69
2023/11/21 01:59:07;;;;;;;11.93;7.93;;;;;;;;;;685250;28;1232;-69
2023/11/21 01:59:27;;;;;;;11.20;7.27;;;;;;;;;;682674;29;1162;-70
2023/11/21 01:59:48;;;;;;;11.93;6.82;;;;;;;;;;681121;28;1134;-70
2023/11/21 02:00:15;;;;;;;12.45;7.43;;;;;;;;;;684011;28;989;-69
2023/11/21 02:00:35;;;;;;;11.77;7.38;;;;;;;;;;687356;28;4274;-70
2023/11/21 02:00:55;;;;;;;11.98;7.63;;;;;;;;;;685213;28;1101;-69
2023/11/21 02:01:18;;;;;;;12.23;7.80;;;;;;;;;;688754;28;852;-69
2023/11/21 02:01:38;;;;;;;11.35;7.40;;;;;;;;;;689428;28;999;-69
2023/11/21 02:01:59;;;;;;;12.10;7.23;;;;;;;;;;689366;28;887;-69
2023/11/21 02:02:19;;;;;;;13.37;7.37;;;;;;;;;;687788;28;1267;-70
2023/11/21 02:02:39;;;;;;;13.60;7.80;;;;;;;;;;687575;28;1317;-70
2023/11/21 02:03:00;;;;;;;12.73;7.77;;;;;;;;;;686526;28;1051;-69
2023/11/21 02:03:20;;;;;;;11.70;7.32;;;;;;;;;;685435;28;907;-69
2023/11/21 02:03:42;;;;;;;12.05;7.40;;;;;;;;;;687413;28;4260;-70
2023/11/21 02:04:03;;;;;;;12.00;7.50;;;;;;;;;;686475;28;1238;-69
2023/11/21 02:04:23;;;;;;;12.43;7.60;;;;;;;;;;687311;28;1323;-69
2023/11/21 02:04:43;;;;;;;13.87;7.73;;;;;;;;;;689528;28;845;-69
2023/11/21 02:05:04;;;;;;;12.75;7.65;;;;;;;;;;684807;28;1033;-70
2023/11/21 02:05:25;;;;;;;12.37;7.57;;;;;;;;;;684200;28;1236;-69
2023/11/21 02:05:46;;;;;;;11.52;7.20;;;;;;;;;;683274;28;899;-69
2023/11/21 02:06:06;;;;;;;12.43;7.10;;;;;;;;;;680136;28;932;-70
2023/11/21 02:06:27;;;;;;;13.38;7.30;;;;;;;;;;681052;29;880;-69
2023/11/21 02:06:47;;;;;;;12.27;7.57;;;;;;;;;;678976;28;4386;-70
2023/11/21 02:07:07;;;;;;;12.52;7.80;;;;;;;;;;684413;28;883;-69
2023/11/21 02:07:28;;;;;;;12.60;7.60;;;;;;;;;;686526;28;955;-70
2023/11/21 02:07:48;;;;;;;13.23;7.60;;;;;;;;;;685031;28;1017;-69